Latest Weather Observations for Kanagulk

IDV60801

Issued at 1:22 pm EST Friday 24 May 2019 (issued every 10 minutes, with the page automatically refreshed every 10 minutes)

About weather observations | Map of weather stations | Latest weather observations for VIC | Other Formats
Station Details ID: 079097 Name: KANAGULK Lat: -37.12 Lon: 141.80 Height: 188.8 m
Data from the previous 72 hours. | See also: Recent months at Kanagulk
Date/Time
EST
Temp
°C
App
Temp
°C
Dew
Point
°C
Rel
Hum
%
Delta-T
°C
Wind Press
QNH
hPa
Press
MSL
hPa
Rain since
9am
mm
Dir  Spd
km/h
Gust
km/h
Spd
kts
Gust
kts
24/01:00pm 21.2 17.0 11.2 53 5.6 NW 24 43 13 23 1014.4 1014.4 0.0
24/12:30pm 19.9 18.0 12.9 64 4.0 NNW 15 24 8 13 1015.0 1015.0 0.0
24/12:00pm 19.2 16.6 13.2 68 3.4 N 19 32 10 17 1015.2 1015.2 0.0
24/11:30am 17.4 14.5 14.1 81 1.9 NNE 22 28 12 15 1015.6 1015.7 0.0
24/11:00am 16.1 13.4 13.6 85 1.4 N 20 26 11 14 1016.1 1016.2 0.0
24/10:30am 16.1 14.2 14.1 88 1.1 NNE 17 26 9 14 1016.5 1016.6 0.0
24/10:00am 15.0 12.6 13.9 93 0.6 N 19 24 10 13 1017.2 1017.3 0.0
24/09:30am 14.5 13.4 14.3 99 0.1 N 13 17 7 9 1017.7 1017.8 0.0
24/09:00am 13.7 12.0 13.5 99 0.1 NNE 15 17 8 9 1017.3 1017.4 0.8
24/08:30am 13.4 13.1 13.2 99 0.1 N 7 11 4 6 1017.8 1017.9 0.6
24/08:00am 13.5 12.5 13.3 99 0.1 NW 11 17 6 9 1018.1 1018.2 0.6
24/07:30am 13.3 12.6 13.1 99 0.1 NNW 9 17 5 9 1017.8 1017.9 0.6
24/07:00am 13.6 12.2 13.4 99 0.1 NW 13 17 7 9 1017.5 1017.6 0.6
24/06:30am 13.9 12.1 13.3 96 0.3 NW 15 24 8 13 1018.0 1018.1 0.2
24/06:00am 13.2 11.5 12.4 95 0.4 NNW 13 22 7 12 1017.9 1018.0 0.0
24/05:30am 12.4 10.6 12.2 99 0.1 N 13 19 7 10 1018.2 1018.3 0.0
24/05:00am 11.8 10.6 11.6 99 0.1 N 9 15 5 8 1017.8 1017.9 0.0
24/04:30am 11.4 10.1 11.2 99 0.1 N 9 13 5 7 1017.7 1017.8 0.0
24/04:00am 10.9 10.0 10.7 99 0.1 N 6 7 3 4 1017.6 1017.7 0.0
24/03:30am 11.0 10.1 10.8 99 0.1 N 6 9 3 5 1018.0 1018.1 0.0
24/03:00am 10.5 9.5 10.3 99 0.1 ENE 6 9 3 5 1017.6 1017.7 0.0
24/02:30am 10.4 8.0 10.2 99 0.1 NE 13 15 7 8 1017.8 1017.9 0.0
24/02:00am 9.7 7.9 9.6 99 0.1 ENE 9 11 5 6 1018.4 1018.5 0.0
24/01:30am 9.9 9.5 9.8 99 0.1 NNW 2 7 1 4 1019.5 1019.5 0.0
24/01:00am 10.7 10.9 10.4 98 0.2 CALM 0 0 0 0 1019.6 1019.6 0.0
24/12:30am 10.4 10.3 9.3 93 0.6 CALM 0 0 0 0 1019.8 1019.9 0.0
24/12:00am 12.0 10.7 10.1 88 1.0 WNW 7 11 4 6 1019.7 1019.7 0.0
 
Date/Time
EST
Temp
°C
App
Temp
°C
Dew
Point
°C
Rel
Hum
%
Delta-T
°C
Wind Press
QNH
hPa
Press
MSL
hPa
Rain since
9am
mm
Dir  Spd
km/h
Gust
km/h
Spd
kts
Gust
kts
23/11:30pm 12.7 11.3 10.9 89 1.0 WNW 9 13 5 7 1019.8 1019.9 0.0
23/11:00pm 12.4 11.3 10.5 88 1.0 WNW 7 11 4 6 1019.9 1020.0 0.0
23/10:30pm 13.0 11.8 10.2 83 1.5 WNW 7 11 4 6 1020.0 1020.1 0.0
23/10:00pm 14.1 13.2 10.5 79 1.9 NW 6 9 3 5 1020.0 1020.1 0.0
23/09:30pm 15.4 14.4 11.0 75 2.4 WNW 7 11 4 6 1020.2 1020.3 0.0
23/09:00pm 16.5 14.9 11.4 72 2.8 W 11 17 6 9 1020.2 1020.3 0.0
23/08:30pm 15.9 15.1 11.7 76 2.3 W 7 11 4 6 1020.0 1020.1 0.0
23/08:00pm 14.5 14.3 8.9 69 2.9 CALM 0 0 0 0 1019.8 1019.9 0.0
23/07:30pm 16.2 16.1 9.4 64 3.6 CALM 0 0 0 0 1019.6 1019.6 0.0
23/07:00pm 17.5 16.3 9.4 59 4.3 WNW 6 11 3 6 1019.6 1019.6 0.0
23/06:30pm 17.8 16.4 9.7 59 4.3 NNW 7 11 4 6 1019.3 1019.3 0.0
23/06:00pm 17.8 16.4 9.4 58 4.4 NNW 7 11 4 6 1019.4 1019.4 0.0
23/05:30pm 19.2 17.9 9.1 52 5.4 NNW 6 9 3 5 1019.2 1019.2 0.0
23/05:00pm 21.6 19.8 9.5 46 6.5 NNW 9 15 5 8 1019.4 1019.4 0.0
23/04:30pm 22.9 20.5 10.0 44 7.1 NNW 13 28 7 15 1019.4 1019.4 0.0
23/04:00pm 23.7 21.0 10.4 43 7.4 NNW 15 22 8 12 1019.6 1019.6 0.0
23/03:30pm 23.5 21.2 10.6 44 7.2 NNW 13 24 7 13 1019.8 1019.9 0.0
23/03:00pm 24.0 21.0 10.7 43 7.4 NNW 17 30 9 16 1020.0 1020.1 0.0
23/02:30pm 23.1 20.2 10.9 46 6.8 NNW 17 32 9 17 1020.4 1020.5 0.0
23/02:00pm 23.2 20.2 11.9 49 6.4 N 19 26 10 14 1020.7 1020.8 0.0
23/01:30pm 22.1 18.9 11.8 52 5.8 N 20 32 11 17 1021.4 1021.5 0.0
23/01:00pm 21.1 17.8 11.7 55 5.3 N 20 30 11 16 1022.0 1022.1 0.0
23/12:30pm 19.5 16.1 11.3 59 4.5 N 20 28 11 15 1022.7 1022.8 0.0
23/12:00pm 18.6 15.2 11.2 62 4.0 NNE 20 26 11 14 1023.5 1023.6 0.0
23/11:30am 16.9 13.8 10.3 65 3.5 NNE 17 22 9 12 1024.1 1024.2 0.0
23/11:00am 15.9 13.2 10.4 70 2.9 NE 15 20 8 11 1024.7 1024.8 0.0
23/10:30am 14.3 11.1 10.1 76 2.2 NNE 17 20 9 11 1025.0 1025.1 0.0
23/10:00am 13.2 10.3 10.9 86 1.2 NNE 17 20 9 11 1025.2 1025.3 0.0
23/09:30am 11.3 8.1 11.1 99 0.1 NNE 19 24 10 13 1025.4 1025.5 0.0
23/09:00am 9.5 7.7 9.5 100 0.0 NNE 9 17 5 9 1025.6 1025.7 0.2
23/08:30am 7.0 5.2 7.0 100 0.0 NE 6 7 3 4 1025.6 1025.7 0.2
23/08:00am 4.4 2.0 4.4 100 0.0 NE 6 7 3 4 1025.4 1025.5 0.2
23/07:30am 4.2 2.9 4.2 100 0.0 CALM 0 0 0 0 1025.4 1025.5 0.2
23/07:00am 4.1 2.8 4.1 100 0.0 CALM 0 0 0 0 1025.3 1025.4 0.2
23/06:30am 4.5 3.3 4.5 100 0.0 CALM 0 0 0 0 1025.1 1025.2 0.2
23/06:00am 4.7 3.5 4.7 100 0.0 CALM 0 0 0 0 1025.1 1025.2 0.2
23/05:30am 3.1 1.6 3.1 100 0.0 CALM 0 0 0 0 1025.1 1025.2 0.2
23/05:00am 3.3 1.9 3.3 100 0.0 CALM 0 0 0 0 1025.1 1025.2 0.2
23/04:30am 4.8 2.9 4.8 100 0.0 E 4 7 2 4 1025.1 1025.2 0.2
23/04:00am 4.3 3.0 4.3 100 0.0 CALM 0 0 0 0 1025.4 1025.5 0.2
23/03:30am 4.2 2.9 4.2 100 0.0 CALM 0 0 0 0 1025.7 1025.8 0.2
23/03:00am 4.8 3.6 4.8 100 0.0 CALM 0 0 0 0 1025.8 1025.9 0.2
23/02:30am 4.8 3.6 4.8 100 0.0 CALM 0 0 0 0 1026.0 1026.1 0.2
23/02:00am 5.3 4.2 5.3 100 0.0 CALM 0 0 0 0 1026.0 1026.1 0.2
23/01:30am 5.1 4.0 5.0 99 0.0 CALM 0 0 0 0 1026.2 1026.3 0.2
23/01:00am 5.2 4.1 5.1 99 0.0 CALM 0 0 0 0 1026.6 1026.7 0.2
23/12:30am 5.7 4.7 5.6 99 0.0 CALM 0 0 0 0 1026.7 1026.8 0.2
23/12:00am 5.1 4.0 5.0 99 0.0 CALM 0 0 0 0 1026.9 1027.0 0.2
 
Date/Time
EST
Temp
°C
App
Temp
°C
Dew
Point
°C
Rel
Hum
%
Delta-T
°C
Wind Press
QNH
hPa
Press
MSL
hPa
Rain since
9am
mm
Dir  Spd
km/h
Gust
km/h
Spd
kts
Gust
kts
22/11:30pm 6.2 4.2 6.1 99 0.0 E 6 7 3 4 1026.8 1026.9 0.2
22/11:00pm 6.1 5.2 6.0 99 0.0 CALM 0 0 0 0 1026.8 1026.9 0.2
22/10:30pm 7.0 6.2 6.7 98 0.1 CALM 0 0 0 0 1027.0 1027.1 0.2
22/10:00pm 7.3 6.6 6.9 97 0.2 CALM 0 0 0 0 1027.1 1027.2 0.2
22/09:30pm 6.8 5.8 5.6 92 0.5 CALM 0 0 0 0 1027.1 1027.2 0.2
22/09:00pm 8.1 7.2 6.1 87 0.9 CALM 0 0 0 0 1027.0 1027.1 0.2
22/08:30pm 9.0 8.1 5.9 81 1.4 CALM 0 0 0 0 1026.9 1027.0 0.2
22/08:00pm 9.3 8.4 6.2 81 1.4 CALM 0 0 0 0 1026.8 1026.9 0.2
22/07:30pm 9.7 8.6 5.3 74 2.0 CALM 0 0 0 0 1026.8 1026.9 0.2
22/07:00pm 11.0 10.1 6.2 72 2.3 CALM 0 0 0 0 1026.7 1026.8 0.2
22/06:30pm 12.5 11.5 5.7 63 3.2 CALM 0 0 0 0 1026.7 1026.8 0.2
22/06:00pm 14.4 13.5 6.0 57 4.0 CALM 0 0 0 0 1026.5 1026.6 0.2
22/05:30pm 15.7 14.7 5.6 51 4.9 CALM 0 0 0 0 1026.3 1026.4 0.2
22/05:00pm 19.0 18.1 6.2 43 6.4 CALM 0 6 0 3 1026.1 1026.2 0.2
22/04:30pm 20.3 18.2 5.9 39 7.2 WNW 6 9 3 5 1026.1 1026.2 0.2
22/04:00pm 20.6 18.3 5.8 38 7.4 NW 7 13 4 7 1026.0 1026.1 0.2
22/03:30pm 20.9 18.9 7.2 41 7.1 NW 7 17 4 9 1026.0 1026.1 0.2
22/03:00pm 20.3 18.0 7.3 43 6.7 NW 9 17 5 9 1026.0 1026.1 0.2
22/02:30pm 20.0 18.0 8.7 48 6.0 WNW 9 11 5 6 1026.2 1026.3 0.2
22/02:00pm 19.5 17.8 8.2 48 5.9 NW 7 17 4 9 1026.4 1026.5 0.2
22/01:30pm 19.6 18.4 8.0 47 6.0 WNW 4 9 2 5 1026.7 1026.8 0.2
22/01:00pm 19.5 18.1 8.8 50 5.6 NNW 6 13 3 7 1027.2 1027.3 0.2
22/12:30pm 18.6 17.4 9.7 56 4.8 N 6 11 3 6 1027.6 1027.7 0.2
22/12:00pm 18.0 17.3 11.3 65 3.7 NNW 6 11 3 6 1028.0 1028.1 0.2
22/11:30am 17.5 16.9 12.2 71 2.9 N 7 11 4 6 1028.3 1028.4 0.0
22/11:00am 15.4 15.4 13.6 89 1.0 NNE 6 9 3 5 1028.5 1028.6 0.0
22/10:30am 13.1 12.9 13.1 100 0.0 NNE 6 9 3 5 1028.6 1028.7 0.0
22/10:00am 11.3 10.4 11.3 100 0.0 NE 7 9 4 5 1028.4 1028.5 0.0
22/09:30am 9.1 7.6 9.1 100 0.0 NE 7 11 4 6 1028.3 1028.4 0.0
22/09:00am 7.9 7.4 7.9 100 0.0 CALM 0 0 0 0 1028.3 1028.4 0.0
22/08:30am 6.1 5.2 6.1 100 0.0 CALM 0 0 0 0 1028.1 1028.2 0.0
22/08:00am 3.3 1.9 3.3 100 0.0 CALM 0 0 0 0 1027.8 1027.9 0.0
22/07:30am 3.0 1.5 3.0 100 0.0 CALM 0 0 0 0 1027.5 1027.6 0.0
22/07:00am 3.2 1.7 3.2 100 0.0 CALM 0 0 0 0 1027.1 1027.2 0.0
22/06:30am 3.4 2.0 3.4 100 0.0 CALM 0 0 0 0 1026.8 1026.9 0.0
22/06:00am 3.6 2.2 3.6 100 0.0 CALM 0 0 0 0 1026.5 1026.6 0.0
22/05:30am 3.9 2.6 3.9 100 0.0 CALM 0 0 0 0 1026.4 1026.5 0.0
22/05:00am 3.7 2.3 3.7 100 0.0 CALM 0 0 0 0 1026.3 1026.4 0.0
22/04:30am 3.7 2.3 3.7 100 0.0 CALM 0 0 0 0 1026.1 1026.2 0.0
22/04:00am 5.2 4.1 5.2 100 0.0 CALM 0 0 0 0 1026.0 1026.1 0.0
22/03:30am 4.2 2.9 4.2 100 0.0 CALM 0 0 0 0 1026.0 1026.1 0.0
22/03:00am 5.0 3.9 5.0 100 0.0 CALM 0 0 0 0 1025.9 1026.0 0.0
22/02:30am 4.2 2.9 4.2 100 0.0 CALM 0 0 0 0 1025.9 1026.0 0.0
22/02:00am 5.9 5.0 5.9 100 0.0 CALM 0 0 0 0 1025.8 1025.9 0.0
22/01:30am 5.8 4.8 5.8 100 0.0 CALM 0 0 0 0 1025.6 1025.7 0.0
22/01:00am 4.7 3.5 4.6 99 0.0 CALM 0 0 0 0 1025.5 1025.6 0.0
22/12:30am 6.2 5.3 6.2 100 0.0 CALM 0 0 0 0 1025.4 1025.5 0.0
22/12:00am 4.8 3.6 4.7 99 0.0 CALM 0 0 0 0 1025.3 1025.4 0.0
 
Date/Time
EST
Temp
°C
App
Temp
°C
Dew
Point
°C
Rel
Hum
%
Delta-T
°C
Wind Press
QNH
hPa
Press
MSL
hPa
Rain since
9am
mm
Dir  Spd
km/h
Gust
km/h
Spd
kts
Gust
kts
21/11:30pm 7.6 7.0 7.5 99 0.0 CALM 0 0 0 0 1025.1 1025.2 0.0
21/11:00pm 8.1 7.6 8.0 99 0.0 CALM 0 0 0 0 1025.1 1025.2 0.0
21/10:30pm 8.9 8.3 8.8 99 0.0 NNW 2 6 1 3 1025.1 1025.2 0.0
21/10:00pm 10.0 8.9 9.9 99 0.1 NNW 6 7 3 4 1024.8 1024.9 0.0
21/09:30pm 9.5 8.6 9.4 99 0.1 NNW 4 7 2 4 1024.9 1025.0 0.0
21/09:00pm 9.4 9.3 9.3 99 0.0 CALM 0 0 0 0 1024.7 1024.8 0.0
21/08:30pm 9.7 9.6 9.6 99 0.1 CALM 0 0 0 0 1024.4 1024.5 0.0
21/08:00pm 10.2 10.3 10.1 99 0.1 CALM 0 0 0 0 1024.1 1024.2 0.0
21/07:30pm 10.9 10.6 10.1 95 0.4 N 2 7 1 4 1023.9 1024.0 0.0
21/07:00pm 11.3 11.2 9.6 89 0.9 CALM 0 0 0 0 1023.7 1023.8 0.0
21/06:30pm 13.0 13.2 10.4 84 1.4 CALM 0 0 0 0 1023.4 1023.5 0.0
21/06:00pm 14.0 14.2 10.4 79 1.9 CALM 0 0 0 0 1023.1 1023.2 0.0
21/05:30pm 15.6 15.8 10.4 71 2.8 CALM 0 6 0 3 1022.9 1023.0 0.0
21/05:00pm 17.8 18.2 11.1 65 3.6 CALM 0 6 0 3 1022.6 1022.7 0.0
21/04:30pm 18.1 16.8 11.2 64 3.8 WNW 9 15 5 8 1022.4 1022.5 0.0
21/04:00pm 17.7 16.0 11.3 66 3.5 NW 11 17 6 9 1022.2 1022.3 0.0
21/03:30pm 17.4 14.9 11.0 66 3.5 NW 15 24 8 13 1022.0 1022.1 0.0
21/03:00pm 17.8 16.6 11.6 67 3.4 NW 9 20 5 11 1021.8 1021.9 0.0
21/02:30pm 17.1 15.2 11.8 71 2.9 NW 13 20 7 11 1022.0 1022.1 0.0
21/02:00pm 17.9 15.3 12.1 69 3.2 NW 17 26 9 14 1022.0 1022.1 0.0
21/01:30pm 18.1 16.4 12.5 70 3.1 NW 13 22 7 12 1022.3 1022.4 0.0

Other formats

Comma delimited format used in spreadsheet applications
http://www.bom.gov.au/fwo/IDV60801/IDV60801.95827.axf

JavaScript Object Notation format (JSON) in row-major order
http://www.bom.gov.au/fwo/IDV60801/IDV60801.95827.json

Data quality

Most of these data are generated automatically and are frequently updated. Quality checks on data are not normally performed. It is possible for incorrect values to appear. Refer to information at About Latest Weather Observations and please check the disclaimer before using these data.